Main page
METAR-TAF:

METAR-TAF

Airports :

Fitchburg Municipal Airport

Fitchburg, Massachusetts, United States

latitude: 42-33-07N, longitude: 071-45-21W, elevation: 348 ft

Current weather observation

The report was made 35 minutes ago, at 16:52 UTC
Wind 21 mph from the West with gusts up to 40 mph
Temperature 43°F
Humidity 56%
Pressure 29.27 in. Hg
Visibility: 10 miles
Clear sky

METAR: KFIT 271652Z AUTO 28018G35KT 10SM CLR 06/M02 A2927 RMK AO2 PK WND 27038/1635 RAE08 SLP912 P0000 T00561017

Time: 12:27 (17:27 UTC)


TAF: missing

Weather observations and forecasts of more than 4000 airports (METAR and TAF reports).

The available stations are represented by yellow and red dots on the map.

Hover mouse over dot to see the name of the station.

Then click to see weather observations and forecasts.

To change the map : click on the green buttons with a black cross to zoom in, on the green button with a dash to zoom out, or on the green arrows for adjacent maps.


METAR-TAF: